Time;durP1;ratioP1;P1;durP2;ratioP2;P2;SDS_P1;SDS_P2;PMS_P1;PMS_P2;Temp;Humidity;BMP_temperature;BMP_pressure;BME280_temperature;BME280_humidity;BME280_pressure;Samples;Min_cycle;Max_cycle;Signal;HPM_P1;HPM_P2
2022/06/28 00:00:05;;;;;;;8.18;1.25;;;13.50;65.30;;;;;;5093671;28;20071;-78
2022/06/28 00:02:33;;;;;;;9.77;1.55;;;13.50;65.40;;;;;;5087057;28;20043;-78
2022/06/28 00:05:02;;;;;;;11.32;1.30;;;13.50;65.40;;;;;;5089885;28;20043;-78
2022/06/28 00:07:30;;;;;;;8.45;1.30;;;13.40;65.40;;;;;;5070670;28;20047;-78
2022/06/28 00:10:00;;;;;;;10.90;1.48;;;13.40;65.30;;;;;;5066215;28;20040;-78
2022/06/28 00:12:27;;;;;;;10.77;1.42;;;13.40;65.40;;;;;;5072721;28;20050;-78
2022/06/28 00:17:42;;;;;;;7.32;1.20;;;13.40;66.30;;;;;;5074834;28;20047;-76
2022/06/28 00:20:11;;;;;;;8.10;1.60;;;13.30;66.40;;;;;;5085918;28;20055;-77
2022/06/28 00:22:38;;;;;;;7.60;1.48;;;13.30;66.90;;;;;;5082282;28;20062;-77
2022/06/28 00:25:07;;;;;;;8.45;1.42;;;13.20;67.60;;;;;;5085262;28;20052;-77
2022/06/28 00:27:36;;;;;;;9.70;1.40;;;13.20;67.70;;;;;;5082737;28;20040;-77
2022/06/28 00:30:05;;;;;;;8.77;1.38;;;13.10;68.00;;;;;;5076401;28;20049;-77
2022/06/28 00:32:32;;;;;;;8.52;1.42;;;13.00;68.30;;;;;;5090524;28;20036;-77
2022/06/28 00:35:01;;;;;;;10.20;1.88;;;13.00;68.60;;;;;;5069930;28;20070;-77
2022/06/28 00:37:29;;;;;;;13.20;1.80;;;12.90;68.70;;;;;;5071661;28;20051;-77
2022/06/28 00:39:57;;;;;;;11.80;1.67;;;12.90;68.80;;;;;;5065408;28;20044;-77
2022/06/28 00:42:25;;;;;;;8.18;1.40;;;12.80;68.90;;;;;;5061392;28;20053;-77
2022/06/28 00:44:53;;;;;;;6.13;1.23;;;12.80;68.90;;;;;;5062572;28;20040;-77
2022/06/28 00:47:21;;;;;;;9.43;1.33;;;12.80;69.10;;;;;;5065599;28;20052;-78
2022/06/28 00:49:49;;;;;;;11.35;2.00;;;12.80;69.10;;;;;;5044908;28;20051;-77
2022/06/28 00:52:16;;;;;;;12.98;1.60;;;12.70;69.10;;;;;;5059522;28;20083;-78
2022/06/28 00:54:44;;;;;;;11.25;1.60;;;12.70;69.20;;;;;;5066007;28;20524;-77
2022/06/28 00:57:12;;;;;;;7.65;1.58;;;12.60;69.30;;;;;;5065858;28;20049;-77
2022/06/28 00:59:39;;;;;;;9.13;1.38;;;12.60;69.80;;;;;;5064042;28;20040;-77
2022/06/28 01:02:12;;;;;;;6.97;1.73;;;12.50;70.20;;;;;;5065585;28;20051;-77
2022/06/28 01:04:43;;;;;;;9.57;1.92;;;12.50;70.40;;;;;;5068300;28;20478;-77
2022/06/28 01:07:10;;;;;;;12.85;1.80;;;12.40;70.50;;;;;;5064695;28;20060;-77
2022/06/28 01:09:38;;;;;;;10.38;1.77;;;12.30;70.70;;;;;;5066627;28;20485;-77
2022/06/28 01:12:06;;;;;;;10.13;1.55;;;12.30;70.90;;;;;;5058898;28;20045;-77
2022/06/28 01:14:38;;;;;;;7.30;1.30;;;12.30;71.10;;;;;;5063675;28;20048;-77
2022/06/28 01:17:13;;;;;;;7.53;1.42;;;12.20;71.10;;;;;;5042053;28;20057;-76
2022/06/28 01:19:49;;;;;;;5.78;1.42;;;12.10;71.40;;;;;;5068417;28;20056;-76
2022/06/28 01:22:43;;;;;;;;;;;12.00;71.60;;;;;;5052926;28;20040;-77
2022/06/28 01:25:16;;;;;;;9.77;1.38;;;11.90;71.80;;;;;;5062795;28;19928;-77
2022/06/28 01:27:47;;;;;;;11.68;1.45;;;11.90;72.00;;;;;;5063623;28;20044;-77
2022/06/28 01:30:15;;;;;;;9.82;1.88;;;11.80;72.00;;;;;;5059966;28;20045;-77
2022/06/28 01:32:56;;;;;;;10.15;1.42;;;11.80;72.00;;;;;;5049346;28;20505;-77
2022/06/28 01:35:23;;;;;;;8.95;1.40;;;11.80;72.20;;;;;;5066818;28;20519;-77
2022/06/28 01:37:51;;;;;;;13.18;1.63;;;11.80;72.50;;;;;;5065700;28;20040;-77
2022/06/28 01:40:20;;;;;;;8.43;1.40;;;11.80;72.60;;;;;;5062043;28;20056;-77
2022/06/28 01:42:50;;;;;;;15.82;1.58;;;11.90;72.60;;;;;;5066780;28;20052;-77
2022/06/28 01:45:17;;;;;;;15.32;1.75;;;11.90;72.70;;;;;;5043365;28;20056;-77
2022/06/28 01:47:47;;;;;;;13.80;1.60;;;11.90;72.50;;;;;;5064291;28;20041;-77
2022/06/28 01:50:33;;;;;;;8.82;1.20;;;11.90;72.50;;;;;;5062213;28;20048;-77
2022/06/28 01:53:01;;;;;;;11.13;1.30;;;11.90;72.50;;;;;;5064162;28;20044;-77
2022/06/28 01:55:52;;;;;;;10.98;1.40;;;11.90;72.50;;;;;;5049645;28;20040;-77
2022/06/28 01:58:34;;;;;;;7.20;1.48;;;11.90;72.50;;;;;;5065836;28;20048;-77
2022/06/28 02:01:01;;;;;;;13.27;1.67;;;12.00;72.50;;;;;;5068572;28;20051;-77
2022/06/28 02:03:29;;;;;;;9.75;1.48;;;11.90;72.60;;;;;;5064669;28;20041;-77
2022/06/28 02:06:04;;;;;;;14.95;1.98;;;11.90;72.70;;;;;;5077876;28;20052;-77
2022/06/28 02:08:35;;;;;;;16.98;2.05;;;11.90;72.80;;;;;;5050828;28;20080;-77
2022/06/28 02:11:06;;;;;;;11.83;1.70;;;11.90;72.80;;;;;;5061420;28;20045;-77
2022/06/28 02:13:47;;;;;;;14.95;1.85;;;11.80;72.80;;;;;;5041110;28;20045;-77
2022/06/28 02:16:15;;;;;;;11.10;2.08;;;11.80;73.20;;;;;;5065381;28;20049;-77
2022/06/28 02:18:43;;;;;;;9.35;1.77;;;11.80;73.30;;;;;;5060965;28;20044;-77
2022/06/28 02:21:12;;;;;;;8.20;1.50;;;11.80;73.40;;;;;;5074798;28;20060;-77
2022/06/28 02:23:39;;;;;;;12.50;2.33;;;11.80;73.50;;;;;;5066602;28;20044;-78
2022/06/28 02:26:11;;;;;;;5.70;1.42;;;11.80;73.80;;;;;;5031829;28;20056;-77
2022/06/28 02:28:41;;;;;;;6.88;1.60;;;11.80;73.90;;;;;;5062045;28;20056;-77
2022/06/28 02:31:11;;;;;;;12.13;1.58;;;11.70;74.00;;;;;;5070234;28;20088;-77
2022/06/28 02:33:40;;;;;;;11.25;1.70;;;11.70;74.00;;;;;;5047223;28;20075;-77
2022/06/28 02:41:38;;;;;;;11.13;1.50;;;11.70;74.20;;;;;;5067333;28;20040;-77
2022/06/28 02:44:05;;;;;;;17.60;1.77;;;11.80;74.30;;;;;;5068567;28;20608;-78
2022/06/28 02:46:33;;;;;;;10.13;1.70;;;11.80;74.30;;;;;;5066974;28;20054;-77
2022/06/28 02:49:01;;;;;;;15.85;2.00;;;11.70;74.30;;;;;;5069493;28;20056;-77
2022/06/28 02:51:29;;;;;;;15.38;2.13;;;11.70;74.50;;;;;;5068348;28;20048;-77
2022/06/28 02:53:57;;;;;;;10.07;2.10;;;11.70;74.60;;;;;;5062575;28;20052;-78
2022/06/28 02:56:24;;;;;;;13.35;2.33;;;11.70;74.70;;;;;;5064913;28;20487;-78
2022/06/28 02:58:53;;;;;;;12.68;2.08;;;11.70;74.90;;;;;;5068791;28;20048;-78
2022/06/28 03:01:20;;;;;;;15.55;2.60;;;11.70;75.00;;;;;;5066369;28;20493;-77
2022/06/28 03:03:48;;;;;;;11.02;1.70;;;11.70;75.10;;;;;;5069017;28;20052;-77
2022/06/28 03:06:16;;;;;;;11.13;2.08;;;11.70;75.10;;;;;;5066363;28;20053;-77
2022/06/28 03:08:43;;;;;;;11.98;2.30;;;11.70;75.10;;;;;;5068600;28;20049;-77
2022/06/28 03:11:11;;;;;;;11.05;2.08;;;11.70;75.10;;;;;;5065390;28;20064;-77
2022/06/28 03:13:38;;;;;;;13.13;1.67;;;11.70;75.20;;;;;;5062966;28;20060;-78
2022/06/28 03:16:06;;;;;;;12.23;1.90;;;11.80;75.30;;;;;;5071698;28;20045;-78
2022/06/28 03:18:34;;;;;;;12.65;1.60;;;11.80;75.40;;;;;;5069492;28;20452;-78
2022/06/28 03:21:03;;;;;;;13.70;2.35;;;11.80;75.50;;;;;;5066058;28;20049;-77
2022/06/28 03:23:31;;;;;;;15.38;1.92;;;11.80;75.80;;;;;;5063781;28;20040;-77
2022/06/28 03:25:59;;;;;;;11.15;1.80;;;11.80;75.70;;;;;;5067317;28;20048;-78
2022/06/28 03:28:26;;;;;;;13.38;1.98;;;11.80;75.70;;;;;;5067213;28;20040;-77
2022/06/28 03:30:58;;;;;;;14.85;1.90;;;11.80;75.80;;;;;;5067674;28;20051;-77
2022/06/28 03:33:26;;;;;;;13.07;1.70;;;11.80;75.60;;;;;;5068359;28;20040;-77
2022/06/28 03:35:54;;;;;;;17.65;2.15;;;11.80;75.50;;;;;;5068195;28;20048;-76
2022/06/28 03:38:28;;;;;;;10.23;2.22;;;11.80;75.70;;;;;;5044075;28;20041;-78
2022/06/28 03:41:06;;;;;;;14.02;1.90;;;11.90;75.60;;;;;;5050277;28;20052;-77
2022/06/28 03:43:35;;;;;;;10.57;1.85;;;11.90;75.60;;;;;;5068318;28;20168;-77
2022/06/28 03:46:02;;;;;;;10.63;2.05;;;11.90;75.50;;;;;;5052653;28;20048;-77
2022/06/28 03:48:40;;;;;;;8.20;1.42;;;11.90;75.50;;;;;;5054159;28;20040;-77
2022/06/28 03:51:26;;;;;;;13.23;1.85;;;11.90;75.80;;;;;;5069314;28;20037;-78
2022/06/28 03:54:13;;;;;;;11.45;1.35;;;11.90;75.60;;;;;;5066377;28;20052;-78
2022/06/28 03:56:48;;;;;;;12.27;2.25;;;11.90;75.50;;;;;;5066481;28;20045;-77
2022/06/28 03:59:18;;;;;;;9.98;1.83;;;11.90;75.70;;;;;;5066233;28;20048;-77
2022/06/28 04:01:45;;;;;;;19.67;2.00;;;11.90;75.80;;;;;;5067636;28;20080;-77
2022/06/28 04:04:13;;;;;;;10.90;2.30;;;11.90;75.70;;;;;;5054131;28;20056;-77
2022/06/28 04:06:44;;;;;;;11.55;1.73;;;11.90;75.80;;;;;;5066326;28;20072;-77
2022/06/28 04:09:12;;;;;;;16.88;2.40;;;11.90;75.80;;;;;;5067661;28;20036;-78
2022/06/28 04:11:45;;;;;;;15.57;1.85;;;11.90;75.90;;;;;;5063547;28;20064;-77
2022/06/28 04:14:13;;;;;;;11.27;1.70;;;11.90;75.80;;;;;;5062968;28;20390;-77
2022/06/28 04:16:41;;;;;;;13.93;2.10;;;11.90;75.80;;;;;;5067052;28;20041;-77
2022/06/28 04:19:13;;;;;;;13.95;1.90;;;11.90;75.80;;;;;;5067676;28;20049;-78
2022/06/28 04:21:48;;;;;;;16.30;2.15;;;12.00;75.80;;;;;;5051230;28;20048;-77
2022/06/28 04:24:22;;;;;;;13.13;1.80;;;12.00;75.80;;;;;;5070930;28;20059;-77
2022/06/28 04:27:14;;;;;;;11.18;1.98;;;12.00;75.90;;;;;;5061455;28;20398;-77
2022/06/28 04:29:42;;;;;;;12.07;1.77;;;12.00;75.80;;;;;;5065086;28;20040;-77
2022/06/28 04:32:26;;;;;;;9.98;1.75;;;12.00;75.80;;;;;;5049083;28;20071;-77
2022/06/28 04:34:57;;;;;;;11.95;1.90;;;11.90;75.80;;;;;;5068978;28;20059;-78
2022/06/28 04:37:25;;;;;;;17.60;2.50;;;12.00;75.90;;;;;;5065632;28;20055;-78
2022/06/28 04:39:59;;;;;;;15.65;2.00;;;12.00;75.90;;;;;;5045893;28;20502;-77
2022/06/28 04:42:32;;;;;;;14.55;2.47;;;12.00;75.90;;;;;;5046415;28;20049;-78
2022/06/28 04:45:01;;;;;;;11.68;1.88;;;12.00;76.00;;;;;;5044593;28;20414;-78
2022/06/28 04:47:42;;;;;;;15.55;2.08;;;12.00;76.10;;;;;;5046860;28;20040;-77
2022/06/28 04:50:10;;;;;;;12.98;1.90;;;12.00;76.20;;;;;;5030804;28;20401;-77
2022/06/28 04:52:38;;;;;;;18.60;1.88;;;12.00;76.30;;;;;;5066652;28;20052;-77
2022/06/28 04:55:07;;;;;;;13.90;1.90;;;12.00;76.30;;;;;;5062681;28;20049;-77
2022/06/28 04:57:54;;;;;;;14.63;2.17;;;12.00;76.50;;;;;;5061564;28;20048;-77
2022/06/28 05:00:22;;;;;;;12.18;1.92;;;12.00;76.60;;;;;;5061569;28;20052;-77
2022/06/28 05:02:59;;;;;;;18.35;2.80;;;12.00;76.60;;;;;;5065354;28;20041;-77
2022/06/28 05:05:53;;;;;;;16.58;2.00;;;12.10;76.70;;;;;;5067619;28;20067;-77
2022/06/28 05:08:21;;;;;;;15.45;2.45;;;12.10;76.80;;;;;;5065055;28;20047;-77
2022/06/28 05:11:07;;;;;;;10.90;2.42;;;12.10;76.80;;;;;;5066044;28;20040;-78
2022/06/28 05:13:51;;;;;;;14.63;2.20;;;12.10;76.70;;;;;;5036906;28;20040;-77
2022/06/28 05:16:19;;;;;;;12.35;1.58;;;12.20;76.60;;;;;;5065036;28;20052;-78
2022/06/28 05:18:47;;;;;;;14.35;1.83;;;12.20;76.70;;;;;;5066260;28;20405;-77
2022/06/28 05:21:19;;;;;;;13.70;2.17;;;12.20;76.60;;;;;;5061781;28;20053;-78
2022/06/28 05:23:47;;;;;;;16.25;1.88;;;12.30;76.50;;;;;;5033914;28;20041;-78
2022/06/28 05:26:21;;;;;;;12.15;1.92;;;12.30;76.40;;;;;;5066741;28;20064;-78
2022/06/28 05:29:08;;;;;;;8.25;1.55;;;12.30;76.40;;;;;;5067305;28;20040;-77
2022/06/28 05:31:36;;;;;;;13.18;1.85;;;12.40;76.30;;;;;;5063592;28;20040;-78
2022/06/28 05:34:04;;;;;;;16.83;2.67;;;12.50;76.30;;;;;;5062450;28;20052;-78
2022/06/28 05:36:32;;;;;;;18.33;1.98;;;12.60;76.10;;;;;;5061207;28;20063;-78
2022/06/28 05:39:00;;;;;;;17.85;2.33;;;12.60;76.10;;;;;;5061913;28;20056;-78
2022/06/28 05:41:30;;;;;;;13.32;1.70;;;12.70;76.00;;;;;;5060227;28;20037;-77
2022/06/28 05:43:59;;;;;;;8.02;1.80;;;12.80;75.80;;;;;;5045463;28;20052;-77
2022/06/28 05:46:28;;;;;;;13.75;1.95;;;12.90;75.70;;;;;;5061895;28;20425;-77
2022/06/28 05:48:56;;;;;;;19.55;2.58;;;13.00;75.70;;;;;;5045316;28;20044;-78
2022/06/28 05:51:24;;;;;;;12.73;2.15;;;13.10;75.40;;;;;;5059913;28;20045;-77
2022/06/28 05:53:52;;;;;;;13.82;2.15;;;13.20;75.20;;;;;;5048335;28;20055;-78
2022/06/28 05:56:21;;;;;;;15.07;2.10;;;13.30;74.90;;;;;;5045039;28;20045;-78
2022/06/28 05:58:48;;;;;;;11.00;1.90;;;13.30;74.90;;;;;;5058807;28;20406;-78
2022/06/28 06:01:16;;;;;;;14.52;2.33;;;13.40;74.70;;;;;;5068519;28;20059;-78
2022/06/28 06:03:44;;;;;;;14.93;2.22;;;13.50;74.30;;;;;;5061499;28;20059;-78
2022/06/28 06:06:11;;;;;;;13.55;2.00;;;13.50;74.10;;;;;;5037881;28;20158;-78
2022/06/28 06:08:40;;;;;;;12.77;1.70;;;13.60;74.10;;;;;;5064745;28;20037;-77
2022/06/28 06:11:09;;;;;;;18.00;2.17;;;13.60;73.90;;;;;;5070774;28;20044;-76
2022/06/28 06:13:37;;;;;;;5.72;1.52;;;13.60;73.80;;;;;;5049266;28;20052;-78
2022/06/28 06:16:05;;;;;;;10.43;1.85;;;13.60;73.90;;;;;;5065304;28;20044;-77
2022/06/28 06:18:33;;;;;;;14.85;1.92;;;13.50;73.80;;;;;;5058921;28;20040;-79
2022/06/28 06:21:01;;;;;;;13.20;1.98;;;13.60;73.80;;;;;;5067971;28;20053;-78
2022/06/28 06:23:29;;;;;;;13.05;2.08;;;13.60;73.70;;;;;;5051606;28;20048;-79
2022/06/28 06:25:56;;;;;;;11.77;1.92;;;13.60;73.60;;;;;;5066431;28;20063;-79
2022/06/28 06:28:24;;;;;;;19.20;2.33;;;13.60;73.60;;;;;;5066033;28;20051;-78
2022/06/28 06:30:53;;;;;;;22.80;1.90;;;13.70;73.60;;;;;;5065172;28;20040;-78
2022/06/28 06:33:39;;;;;;;9.82;1.88;;;13.70;73.60;;;;;;5052067;28;20057;-78
2022/06/28 06:36:30;;;;;;;11.10;2.08;;;13.80;73.60;;;;;;5067807;28;20067;-78
2022/06/28 06:39:02;;;;;;;8.02;1.45;;;13.80;73.50;;;;;;5065930;28;20040;-78
2022/06/28 06:41:31;;;;;;;14.90;2.13;;;13.80;73.50;;;;;;5054649;28;20048;-78
2022/06/28 06:44:00;;;;;;;17.42;2.13;;;13.90;73.40;;;;;;5065812;28;20486;-78
2022/06/28 06:46:33;;;;;;;13.48;1.80;;;14.00;73.30;;;;;;5064563;28;20072;-78
2022/06/28 06:49:01;;;;;;;15.85;2.55;;;14.00;73.10;;;;;;5064897;28;20660;-78
2022/06/28 06:51:30;;;;;;;13.40;1.80;;;14.10;72.80;;;;;;5047867;28;20056;-78
2022/06/28 06:53:58;;;;;;;11.27;2.10;;;14.20;72.80;;;;;;5051831;28;20048;-79
2022/06/28 06:56:27;;;;;;;12.85;1.85;;;14.20;72.70;;;;;;5063396;28;20036;-79
2022/06/28 06:58:59;;;;;;;;;;;14.20;72.70;;;;;;5063650;28;20032;-78
2022/06/28 07:01:32;;;;;;;12.07;1.67;;;14.20;72.50;;;;;;5067353;28;19920;-78
2022/06/28 07:04:15;;;;;;;16.27;2.35;;;14.20;72.70;;;;;;5078385;28;20052;-78
2022/06/28 07:06:43;;;;;;;11.43;1.63;;;14.20;72.60;;;;;;5064477;28;20048;-78
2022/06/28 07:09:14;;;;;;;12.73;2.20;;;14.30;72.70;;;;;;5068396;28;20048;-79
2022/06/28 07:11:42;;;;;;;7.90;1.77;;;14.40;72.40;;;;;;5065476;28;20048;-79
2022/06/28 07:14:10;;;;;;;10.20;2.10;;;14.50;72.20;;;;;;5066946;28;20044;-78
2022/06/28 07:16:39;;;;;;;18.25;2.35;;;14.60;71.70;;;;;;5049480;28;20037;-79
2022/06/28 07:19:10;;;;;;;12.50;1.88;;;14.70;71.60;;;;;;5049452;28;20056;-79
2022/06/28 07:21:37;;;;;;;8.77;1.73;;;14.70;71.30;;;;;;5063562;28;20059;-79
2022/06/28 07:24:07;;;;;;;7.88;1.55;;;14.80;71.40;;;;;;5060957;28;20052;-78
2022/06/28 07:26:36;;;;;;;19.70;2.42;;;14.80;71.10;;;;;;5044524;28;20498;-78
2022/06/28 07:29:05;;;;;;;10.48;1.50;;;14.80;71.00;;;;;;5066633;28;20041;-78
2022/06/28 07:31:41;;;;;;;15.23;2.00;;;14.90;71.00;;;;;;5060633;28;20044;-78
2022/06/28 07:34:10;;;;;;;13.25;1.95;;;14.90;70.60;;;;;;5069015;28;20051;-79
2022/06/28 07:36:40;;;;;;;9.80;2.00;;;15.00;70.70;;;;;;5068289;28;20044;-78
2022/06/28 07:39:08;;;;;;;12.95;2.10;;;15.00;70.60;;;;;;5055509;28;20068;-79
2022/06/28 07:41:55;;;;;;;16.70;2.00;;;15.20;70.50;;;;;;5058134;28;20045;-78
2022/06/28 07:44:43;;;;;;;12.23;1.70;;;15.30;70.20;;;;;;5078396;28;20052;-79
2022/06/28 07:47:11;;;;;;;16.73;2.53;;;15.60;68.80;;;;;;5059188;28;20047;-78
2022/06/28 07:52:34;;;;;;;13.55;2.10;;;15.80;68.30;;;;;;5075393;28;20146;-77
2022/06/28 07:55:10;;;;;;;11.93;2.00;;;15.90;67.30;;;;;;5075852;28;20047;-78
2022/06/28 07:57:58;;;;;;;12.82;1.98;;;16.00;66.90;;;;;;5059643;28;20363;-77
2022/06/28 08:00:26;;;;;;;10.90;1.88;;;16.00;66.30;;;;;;5072757;28;20044;-77
2022/06/28 08:03:11;;;;;;;10.35;1.77;;;16.10;66.20;;;;;;5075829;28;20044;-77
2022/06/28 08:05:38;;;;;;;8.35;1.50;;;16.20;65.90;;;;;;5075361;28;20052;-79
2022/06/28 08:08:07;;;;;;;10.10;2.00;;;16.30;65.60;;;;;;5074651;28;20531;-78
2022/06/28 08:10:36;;;;;;;13.18;2.33;;;16.40;65.40;;;;;;5074654;28;20047;-78
2022/06/28 08:13:07;;;;;;;13.73;2.17;;;16.50;65.20;;;;;;5075229;28;20048;-78
2022/06/28 08:15:44;;;;;;;15.13;2.33;;;16.60;65.10;;;;;;5075249;28;20035;-78
2022/06/28 08:18:13;;;;;;;8.82;1.23;;;16.60;64.40;;;;;;5075367;28;20036;-79
2022/06/28 08:20:41;;;;;;;11.13;1.65;;;16.60;64.50;;;;;;5059042;28;20055;-78
2022/06/28 08:23:11;;;;;;;16.05;1.95;;;16.50;63.80;;;;;;5075293;28;20047;-78
2022/06/28 08:25:42;;;;;;;13.13;2.05;;;16.50;64.40;;;;;;5058150;28;20048;-77
2022/06/28 08:28:11;;;;;;;4.22;0.90;;;16.60;64.00;;;;;;5074215;28;20044;-77
2022/06/28 08:30:42;;;;;;;13.50;2.33;;;16.60;63.90;;;;;;5093384;28;20044;-77
2022/06/28 08:33:11;;;;;;;7.13;1.30;;;16.60;64.10;;;;;;5075106;28;20052;-77
2022/06/28 08:35:45;;;;;;;12.73;1.70;;;16.70;64.30;;;;;;5092602;28;20052;-78
2022/06/28 08:38:12;;;;;;;11.50;1.85;;;16.80;63.80;;;;;;5092130;28;20040;-77
2022/06/28 08:40:42;;;;;;;8.65;1.60;;;16.80;63.60;;;;;;5088437;28;20504;-77
2022/06/28 08:43:15;;;;;;;12.90;1.50;;;16.80;63.50;;;;;;5092988;28;20527;-77
2022/06/28 08:45:44;;;;;;;11.38;1.77;;;16.80;62.80;;;;;;5074522;28;20114;-77
2022/06/28 08:48:22;;;;;;;8.65;1.50;;;16.60;63.30;;;;;;5093029;28;20051;-78
2022/06/28 08:50:53;;;;;;;9.45;1.25;;;16.60;63.20;;;;;;5093039;28;20040;-78
2022/06/28 08:53:23;;;;;;;8.35;1.55;;;16.50;62.70;;;;;;5073923;28;20052;-77
2022/06/28 08:55:51;;;;;;;9.43;1.58;;;16.40;62.90;;;;;;5075005;28;20040;-77
2022/06/28 08:58:20;;;;;;;14.55;1.45;;;16.30;63.40;;;;;;5092619;28;20048;-78
2022/06/28 09:00:50;;;;;;;9.95;1.73;;;16.20;63.60;;;;;;5066013;28;20044;-77
2022/06/28 09:03:19;;;;;;;6.38;1.27;;;16.10;63.80;;;;;;5074660;28;20048;-77
2022/06/28 09:05:49;;;;;;;16.15;2.03;;;16.10;63.70;;;;;;5092613;28;20390;-76
2022/06/28 09:08:17;;;;;;;13.60;2.30;;;16.00;64.20;;;;;;5074115;28;20516;-77
2022/06/28 09:10:47;;;;;;;7.80;1.88;;;16.00;64.50;;;;;;5075286;28;20047;-77
2022/06/28 09:13:21;;;;;;;9.20;1.57;;;16.00;64.50;;;;;;5092582;28;20047;-77
2022/06/28 09:15:57;;;;;;;8.45;1.50;;;16.10;64.40;;;;;;5074396;28;20048;-77
2022/06/28 09:18:34;;;;;;;9.65;1.30;;;16.20;64.10;;;;;;5092551;28;20401;-77
2022/06/28 09:21:05;;;;;;;7.07;1.55;;;16.30;63.20;;;;;;5092609;28;20498;-77
2022/06/28 09:23:44;;;;;;;15.55;1.50;;;16.50;62.90;;;;;;5091581;28;20066;-77
2022/06/28 09:26:20;;;;;;;9.95;1.63;;;16.70;62.40;;;;;;5092873;28;20044;-77
2022/06/28 09:28:52;;;;;;;6.72;1.40;;;16.90;61.20;;;;;;5073612;28;20444;-77
2022/06/28 09:31:30;;;;;;;10.20;1.65;;;17.00;60.70;;;;;;5067211;28;20047;-78
2022/06/28 09:34:04;;;;;;;7.03;1.48;;;17.10;60.40;;;;;;5070318;28;20052;-77
2022/06/28 09:36:35;;;;;;;11.13;1.77;;;17.20;59.90;;;;;;5071738;28;20075;-78
2022/06/28 09:39:14;;;;;;;10.40;1.30;;;17.10;59.90;;;;;;5087345;28;20057;-77
2022/06/28 09:41:52;;;;;;;8.15;2.22;;;17.00;59.80;;;;;;5055890;28;20044;-77
2022/06/28 09:44:50;;;;;;;4.78;1.05;;;16.80;59.80;;;;;;5072067;28;20044;-77
2022/06/28 09:47:21;;;;;;;10.85;1.45;;;16.70;60.00;;;;;;5054020;28;20402;-77
2022/06/28 09:49:51;;;;;;;7.70;1.50;;;16.60;60.20;;;;;;5055658;28;20055;-77
2022/06/28 09:52:26;;;;;;;8.38;1.30;;;16.50;60.30;;;;;;5073013;28;20044;-77
2022/06/28 09:54:58;;;;;;;10.75;1.25;;;16.50;60.70;;;;;;5091280;28;20070;-77
2022/06/28 09:57:27;;;;;;;5.97;1.40;;;16.50;60.80;;;;;;5084426;28;20048;-77
2022/06/28 09:59:55;;;;;;;10.85;1.73;;;16.60;60.50;;;;;;5073275;28;20051;-77
2022/06/28 10:02:23;;;;;;;6.28;1.50;;;16.80;60.00;;;;;;5054178;28;20048;-77
2022/06/28 10:04:51;;;;;;;4.45;1.20;;;17.00;59.50;;;;;;5054204;28;20064;-77
2022/06/28 10:07:23;;;;;;;8.15;1.33;;;17.30;59.70;;;;;;5054218;28;20063;-77
2022/06/28 10:09:54;;;;;;;5.43;1.10;;;17.50;58.80;;;;;;5059430;28;20056;-77
2022/06/28 10:15:09;;;;;;;10.38;1.35;;;17.80;57.60;;;;;;5091405;28;20052;-77
2022/06/28 10:17:52;;;;;;;4.55;1.30;;;18.00;56.90;;;;;;5091392;28;20048;-77
2022/06/28 10:20:31;;;;;;;7.55;1.58;;;18.00;57.20;;;;;;5090264;28;20051;-77
2022/06/28 10:23:24;;;;;;;10.23;1.65;;;18.00;56.50;;;;;;5054214;28;20644;-77
2022/06/28 10:26:09;;;;;;;10.10;1.75;;;17.90;56.70;;;;;;5054885;28;20524;-77
2022/06/28 10:29:01;;;;;;;9.70;1.60;;;18.00;56.90;;;;;;5053956;28;20409;-77
2022/06/28 10:31:36;;;;;;;5.43;1.02;;;18.00;56.50;;;;;;5071392;28;20048;-78
2022/06/28 10:34:42;;;;;;;4.00;1.17;;;18.00;56.20;;;;;;5073770;28;20048;-78
2022/06/28 10:37:10;;;;;;;8.43;1.13;;;18.20;56.30;;;;;;5069828;28;20052;-78
2022/06/28 10:39:37;;;;;;;9.52;1.25;;;18.40;55.70;;;;;;5083925;28;20044;-78
2022/06/28 10:42:07;;;;;;;5.82;1.10;;;18.50;55.90;;;;;;5077744;28;20055;-78
2022/06/28 10:44:35;;;;;;;6.55;1.20;;;18.60;55.10;;;;;;5105281;28;20040;-78
2022/06/28 10:47:05;;;;;;;6.70;1.23;;;18.70;54.60;;;;;;5098538;28;20040;-78
2022/06/28 10:49:44;;;;;;;8.13;1.25;;;18.90;55.00;;;;;;5097166;28;20405;-78
2022/06/28 10:52:26;;;;;;;14.90;1.30;;;19.10;53.60;;;;;;5092478;28;20484;-78
2022/06/28 10:54:57;;;;;;;11.70;1.50;;;19.20;53.00;;;;;;5113648;28;20040;-78
2022/06/28 10:57:33;;;;;;;5.90;1.20;;;19.00;52.50;;;;;;5088153;28;20417;-79
2022/06/28 11:00:07;;;;;;;8.20;0.95;;;18.80;53.10;;;;;;5077036;28;20508;-78
2022/06/28 11:02:50;;;;;;;6.88;1.40;;;18.60;53.80;;;;;;5094245;28;20067;-78
2022/06/28 11:05:26;;;;;;;8.57;1.55;;;18.40;54.80;;;;;;5096034;28;20040;-78
2022/06/28 11:08:02;;;;;;;12.02;1.73;;;18.30;55.10;;;;;;5095336;28;20055;-78
2022/06/28 11:10:33;;;;;;;10.88;1.58;;;18.20;55.50;;;;;;5104598;28;20139;-78
2022/06/28 11:13:20;;;;;;;8.45;1.45;;;18.10;55.10;;;;;;5094966;28;20044;-79
2022/06/28 11:15:48;;;;;;;8.05;1.40;;;17.90;55.40;;;;;;5102201;28;20047;-79
2022/06/28 11:18:17;;;;;;;4.85;1.02;;;17.90;55.60;;;;;;5096949;28;20052;-78
2022/06/28 11:20:45;;;;;;;8.43;1.50;;;18.00;56.00;;;;;;5095136;28;20408;-79
2022/06/28 11:23:27;;;;;;;8.35;1.45;;;18.10;55.90;;;;;;5088580;28;20055;-77
2022/06/28 11:28:59;;;;;;;7.57;1.40;;;18.50;56.00;;;;;;5092988;28;20047;-74
2022/06/28 11:31:30;;;;;;;9.70;1.10;;;19.10;54.50;;;;;;5093582;28;20040;-77
2022/06/28 11:33:59;;;;;;;8.32;1.45;;;19.50;52.80;;;;;;5093692;28;20043;-76
2022/06/28 11:36:31;;;;;;;9.35;1.38;;;19.50;53.10;;;;;;5076595;28;20040;-76
2022/06/28 11:39:19;;;;;;;7.97;1.63;;;19.40;52.10;;;;;;5055341;28;20406;-75
2022/06/28 11:41:52;;;;;;;5.70;1.23;;;19.30;52.80;;;;;;5089500;28;20070;-75
2022/06/28 11:44:22;;;;;;;8.98;1.48;;;19.30;52.60;;;;;;5057000;28;20040;-75
2022/06/28 11:46:51;;;;;;;17.05;2.38;;;19.20;53.00;;;;;;5090879;28;20044;-74
2022/06/28 11:49:32;;;;;;;11.68;2.28;;;19.00;53.20;;;;;;5095086;28;20052;-74
2022/06/28 11:52:02;;;;;;;9.90;2.08;;;18.80;53.90;;;;;;5078370;28;20044;-74
2022/06/28 11:54:32;;;;;;;12.57;2.05;;;18.70;54.40;;;;;;5084721;28;20050;-73
2022/06/28 11:57:13;;;;;;;9.65;2.63;;;18.70;54.80;;;;;;5106480;28;20047;-73
2022/06/28 11:59:58;;;;;;;7.35;1.60;;;18.70;54.10;;;;;;5076402;28;20052;-73
2022/06/28 12:02:49;;;;;;;10.98;1.60;;;18.50;54.20;;;;;;5095603;28;20066;-73
2022/06/28 12:05:34;;;;;;;15.57;1.88;;;18.30;55.10;;;;;;5041411;28;20051;-73
2022/06/28 12:08:07;;;;;;;5.97;1.10;;;18.20;55.60;;;;;;5065267;28;20044;-72
2022/06/28 12:10:35;;;;;;;5.50;1.00;;;18.30;55.80;;;;;;5086996;28;20040;-73
2022/06/28 12:13:12;;;;;;;8.40;1.27;;;18.30;55.10;;;;;;5082824;28;20048;-74
2022/06/28 12:15:41;;;;;;;8.15;1.45;;;18.30;55.00;;;;;;5103058;28;20040;-79
2022/06/28 12:18:09;;;;;;;8.23;1.25;;;18.30;54.90;;;;;;5094600;28;20035;-72
2022/06/28 12:20:54;;;;;;;6.63;1.15;;;18.30;55.10;;;;;;5106103;28;20040;-72
2022/06/28 12:23:22;;;;;;;11.48;1.50;;;18.40;55.40;;;;;;5093385;28;20055;-72
2022/06/28 12:26:00;;;;;;;11.70;1.70;;;18.60;55.10;;;;;;5093454;28;20492;-72
2022/06/28 12:28:31;;;;;;;8.63;1.38;;;18.80;54.80;;;;;;5076198;28;20047;-73
2022/06/28 12:30:59;;;;;;;8.50;1.40;;;18.90;54.00;;;;;;5108224;28;20040;-72
2022/06/28 12:33:29;;;;;;;7.82;1.50;;;19.00;54.10;;;;;;5095169;28;20063;-70
2022/06/28 12:35:57;;;;;;;8.45;1.45;;;19.00;53.90;;;;;;5093179;28;20051;-72
2022/06/28 12:38:24;;;;;;;6.28;1.42;;;18.90;54.10;;;;;;5073797;28;20051;-71
2022/06/28 12:40:56;;;;;;;9.75;1.52;;;18.80;54.20;;;;;;5074022;28;20040;-74
2022/06/28 12:43:24;;;;;;;9.13;1.30;;;18.80;54.10;;;;;;5090589;28;20048;-73
2022/06/28 12:45:54;;;;;;;7.88;1.50;;;18.70;54.30;;;;;;5088264;28;20048;-74
2022/06/28 12:48:22;;;;;;;6.45;1.30;;;18.70;54.70;;;;;;5087601;28;20067;-74
2022/06/28 12:50:51;;;;;;;6.10;1.20;;;18.80;54.60;;;;;;5089523;28;20044;-71
2022/06/28 12:53:28;;;;;;;8.82;1.35;;;18.80;54.10;;;;;;5092297;28;20051;-73
2022/06/28 12:55:58;;;;;;;12.55;1.50;;;18.80;53.80;;;;;;5090976;28;20059;-73
2022/06/28 12:58:26;;;;;;;5.95;1.25;;;18.80;54.20;;;;;;5090422;28;20051;-72
2022/06/28 13:00:53;;;;;;;10.68;1.45;;;18.80;54.40;;;;;;5090903;28;20055;-73
2022/06/28 13:03:21;;;;;;;7.65;1.35;;;18.70;54.80;;;;;;5091387;28;20054;-72
2022/06/28 13:05:49;;;;;;;10.60;1.98;;;18.70;54.20;;;;;;5093743;28;20047;-71
2022/06/28 13:08:16;;;;;;;7.60;1.65;;;18.60;54.10;;;;;;5075292;28;20040;-73
2022/06/28 13:10:44;;;;;;;5.85;1.30;;;18.60;54.30;;;;;;5094025;28;20067;-72
2022/06/28 13:13:12;;;;;;;9.13;1.60;;;18.60;54.70;;;;;;5091118;28;20052;-72
2022/06/28 13:15:42;;;;;;;4.57;1.42;;;18.60;53.90;;;;;;5055013;28;20063;-71
2022/06/28 13:18:13;;;;;;;17.38;1.98;;;18.70;54.00;;;;;;5092954;28;20129;-72
2022/06/28 13:20:40;;;;;;;3.80;1.00;;;18.70;53.50;;;;;;5092709;28;20413;-72